createdAt,value
2022-12-11T00:01:52.514Z,20.73
2022-12-11T00:04:18.957Z,20.78
2022-12-11T00:06:45.412Z,20.78
2022-12-11T00:09:11.787Z,20.89
2022-12-11T00:11:38.215Z,20.36
2022-12-11T00:14:04.932Z,20.71
2022-12-11T00:16:31.340Z,20.76
2022-12-11T00:19:00.131Z,21.45
2022-12-11T00:21:26.675Z,21.93
2022-12-11T00:23:53.042Z,22.17
2022-12-11T00:26:19.455Z,22.72
2022-12-11T00:28:46.121Z,23.05
2022-12-11T00:31:12.812Z,22.67
2022-12-11T00:33:40.206Z,23.41
2022-12-11T00:36:06.632Z,23.79
2022-12-11T00:38:33.311Z,23.55
2022-12-11T00:40:59.965Z,23.20
2022-12-11T00:43:26.314Z,23.41
2022-12-11T00:45:52.826Z,23.66
2022-12-11T00:48:19.587Z,23.05
2022-12-11T00:50:46.082Z,23.78
2022-12-11T00:53:12.783Z,24.55
2022-12-11T00:55:39.376Z,24.13
2022-12-11T00:58:05.951Z,23.64
2022-12-11T01:00:33.436Z,23.97
2022-12-11T01:03:00.038Z,23.96
2022-12-11T01:05:26.715Z,23.48
2022-12-11T01:07:53.719Z,23.49
2022-12-11T01:10:20.203Z,22.69
2022-12-11T01:12:46.929Z,22.59
2022-12-11T01:15:14.007Z,23.91
2022-12-11T01:17:42.818Z,22.70
2022-12-11T01:20:11.778Z,23.14
2022-12-11T01:22:38.236Z,22.86
2022-12-11T01:25:04.634Z,23.19
2022-12-11T01:27:31.061Z,22.69
2022-12-11T01:29:57.538Z,23.18
2022-12-11T01:32:24.110Z,23.50
2022-12-11T01:34:50.469Z,22.76
2022-12-11T01:37:17.281Z,22.48
2022-12-11T01:39:44.243Z,22.75
2022-12-11T01:42:12.837Z,22.58
2022-12-11T01:44:39.747Z,22.52
2022-12-11T01:47:08.955Z,23.24
2022-12-11T01:49:35.299Z,22.66
2022-12-11T01:52:01.676Z,23.12
2022-12-11T01:54:28.123Z,23.14
2022-12-11T01:56:54.892Z,23.55
2022-12-11T01:59:21.456Z,24.28
2022-12-11T02:01:47.901Z,24.03
2022-12-11T02:04:14.385Z,24.00
2022-12-11T02:06:40.773Z,23.94
2022-12-11T02:09:07.156Z,23.68
2022-12-11T02:11:34.771Z,23.78
2022-12-11T02:14:01.171Z,23.62
2022-12-11T02:16:29.925Z,23.45
2022-12-11T02:18:56.339Z,23.58
2022-12-11T02:21:23.027Z,23.66
2022-12-11T02:23:49.680Z,23.58
2022-12-11T02:26:23.345Z,23.51
2022-12-11T02:28:49.924Z,23.59
2022-12-11T02:31:16.736Z,23.59
2022-12-11T02:33:43.559Z,22.46
2022-12-11T02:36:10.292Z,22.93
2022-12-11T02:38:36.765Z,22.84
2022-12-11T02:41:03.542Z,21.85
2022-12-11T02:43:29.896Z,21.88
2022-12-11T02:45:56.734Z,22.19
2022-12-11T02:48:23.254Z,22.47
2022-12-11T02:50:49.808Z,22.78
2022-12-11T02:53:16.479Z,21.96
2022-12-11T02:55:42.817Z,22.05
2022-12-11T02:58:09.216Z,22.66
2022-12-11T03:00:35.588Z,23.04
2022-12-11T03:03:01.989Z,23.47
2022-12-11T03:05:28.532Z,22.63
2022-12-11T03:07:55.082Z,23.50
2022-12-11T03:10:21.761Z,23.39
2022-12-11T03:12:53.164Z,22.78
2022-12-11T03:15:20.171Z,24.03
2022-12-11T03:17:46.561Z,22.97
2022-12-11T03:20:13.000Z,23.11
2022-12-11T03:22:39.450Z,23.67
2022-12-11T03:25:05.952Z,22.68
2022-12-11T03:27:32.616Z,21.64
2022-12-11T03:29:58.987Z,21.41
2022-12-11T03:32:25.560Z,21.16
2022-12-11T03:34:56.930Z,20.94
2022-12-11T03:37:25.124Z,21.02
2022-12-11T03:39:53.380Z,20.99
2022-12-11T03:42:19.769Z,20.61
2022-12-11T03:44:46.146Z,21.14
2022-12-11T03:47:12.750Z,20.95
2022-12-11T03:49:39.232Z,21.08
2022-12-11T03:52:05.638Z,21.07
2022-12-11T03:54:32.096Z,21.88
2022-12-11T03:57:01.185Z,20.89
2022-12-11T03:59:29.781Z,21.12
2022-12-11T04:01:56.176Z,21.51
2022-12-11T04:04:22.729Z,21.02
2022-12-11T04:06:49.332Z,20.93
2022-12-11T04:09:15.715Z,20.69
2022-12-11T04:11:42.094Z,20.47
2022-12-11T04:14:08.654Z,20.99
2022-12-11T04:16:35.221Z,20.53
2022-12-11T04:19:01.615Z,21.33
2022-12-11T04:21:27.990Z,20.98
2022-12-11T04:23:57.436Z,21.12
2022-12-11T04:26:23.902Z,21.35
2022-12-11T04:28:50.757Z,21.08
2022-12-11T04:31:19.675Z,20.62
2022-12-11T04:33:46.194Z,20.39
2022-12-11T04:36:12.534Z,20.89
2022-12-11T04:38:39.286Z,20.87
2022-12-11T04:41:06.286Z,20.93
2022-12-11T04:43:32.991Z,20.87
2022-12-11T04:45:59.491Z,20.01
2022-12-11T04:48:26.524Z,21.31
2022-12-11T04:50:53.911Z,20.52
2022-12-11T04:53:20.528Z,20.20
2022-12-11T04:55:47.476Z,20.41
2022-12-11T04:58:14.271Z,19.96
2022-12-11T05:00:40.715Z,20.54
2022-12-11T05:03:08.203Z,20.51
2022-12-11T05:05:34.581Z,20.66
2022-12-11T05:08:08.223Z,20.24
2022-12-11T05:10:34.782Z,20.74
2022-12-11T05:13:03.767Z,20.86
2022-12-11T05:15:30.110Z,21.37
2022-12-11T05:17:56.601Z,20.36
2022-12-11T05:20:22.988Z,21.60
2022-12-11T05:22:49.481Z,22.27
2022-12-11T05:25:15.922Z,20.64
2022-12-11T05:27:42.305Z,21.48
2022-12-11T05:30:08.698Z,20.53
2022-12-11T05:32:37.147Z,21.23
2022-12-11T05:35:06.403Z,21.16
2022-12-11T05:37:33.412Z,20.77
2022-12-11T05:40:02.614Z,20.77
2022-12-11T05:42:30.000Z,21.17
2022-12-11T05:44:56.510Z,21.50
2022-12-11T05:47:22.979Z,20.88
2022-12-11T05:49:52.241Z,21.74
2022-12-11T05:52:18.860Z,21.83
2022-12-11T05:54:45.189Z,21.99
2022-12-11T05:57:12.587Z,21.07
2022-12-11T05:59:38.930Z,20.95
2022-12-11T06:02:05.461Z,21.02
2022-12-11T06:04:31.899Z,21.81
2022-12-11T06:06:58.361Z,20.81
2022-12-11T06:09:26.013Z,21.23
2022-12-11T06:11:52.409Z,21.37
2022-12-11T06:14:20.203Z,22.12
2022-12-11T06:16:46.624Z,22.07
2022-12-11T06:19:13.278Z,21.31
2022-12-11T06:21:40.041Z,21.68
2022-12-11T06:24:07.767Z,21.40
2022-12-11T06:26:34.529Z,21.72
2022-12-11T06:29:01.069Z,21.75
2022-12-11T06:31:27.861Z,21.37
2022-12-11T06:33:54.365Z,22.68
2022-12-11T06:36:20.945Z,22.42
2022-12-11T06:38:47.415Z,22.03
2022-12-11T06:41:13.807Z,22.67
2022-12-11T06:43:40.266Z,22.68
2022-12-11T06:46:06.776Z,22.21
2022-12-11T06:48:34.092Z,22.80
2022-12-11T06:51:00.548Z,23.04
2022-12-11T06:53:26.940Z,23.85
2022-12-11T06:55:53.844Z,24.73
2022-12-11T06:58:20.207Z,26.50
2022-12-11T07:00:46.724Z,27.07
2022-12-11T07:03:13.150Z,26.95
2022-12-11T07:05:39.750Z,27.33
2022-12-11T07:08:07.151Z,27.04
2022-12-11T07:10:35.750Z,25.66
2022-12-11T07:13:03.108Z,24.93
2022-12-11T07:15:30.848Z,24.29
2022-12-11T07:17:57.219Z,23.54
2022-12-11T07:20:25.661Z,24.36
2022-12-11T07:22:52.026Z,24.25
2022-12-11T07:25:21.039Z,23.52
2022-12-11T07:27:47.454Z,23.39
2022-12-11T07:30:14.462Z,24.32
2022-12-11T07:32:41.020Z,23.82
2022-12-11T07:35:07.547Z,24.55
2022-12-11T07:37:34.026Z,25.17
2022-12-11T07:40:00.724Z,24.64
2022-12-11T07:42:29.409Z,24.02
2022-12-11T07:44:56.821Z,26.30
2022-12-11T07:47:31.331Z,26.49
2022-12-11T07:49:59.111Z,26.14
2022-12-11T07:52:25.491Z,25.73
2022-12-11T07:54:52.195Z,27.47
2022-12-11T07:57:21.078Z,26.94
2022-12-11T07:59:49.518Z,24.88
2022-12-11T08:02:16.014Z,26.95
2022-12-11T08:04:44.599Z,28.60
2022-12-11T08:07:11.732Z,27.34
2022-12-11T08:09:39.205Z,26.63
2022-12-11T08:12:05.647Z,25.83
2022-12-11T08:14:32.121Z,25.57
2022-12-11T08:16:58.810Z,26.46
2022-12-11T08:19:25.167Z,26.94
2022-12-11T08:21:51.631Z,26.28
2022-12-11T08:24:17.965Z,26.24
2022-12-11T08:26:44.344Z,25.85
2022-12-11T08:29:10.695Z,26.41
2022-12-11T08:31:37.407Z,27.80
2022-12-11T08:34:04.105Z,26.42
2022-12-11T08:36:30.949Z,25.27
2022-12-11T08:38:57.405Z,24.57
2022-12-11T08:41:24.214Z,24.93
2022-12-11T08:43:52.063Z,24.66
2022-12-11T08:46:18.580Z,25.37
2022-12-11T08:48:47.483Z,26.65
2022-12-11T08:51:16.224Z,25.11
2022-12-11T08:53:43.425Z,25.95
2022-12-11T08:56:10.209Z,26.05
2022-12-11T08:58:36.662Z,25.92
2022-12-11T09:01:03.246Z,25.56
2022-12-11T09:03:29.663Z,24.96
2022-12-11T09:05:56.506Z,25.28
2022-12-11T09:08:23.284Z,24.86
2022-12-11T09:10:49.686Z,24.69
2022-12-11T09:13:16.072Z,24.61
2022-12-11T09:15:42.506Z,24.12
2022-12-11T09:18:08.910Z,24.96
2022-12-11T09:20:35.238Z,25.56
2022-12-11T09:23:01.776Z,27.13
2022-12-11T09:25:28.143Z,28.58
2022-12-11T09:27:54.734Z,28.28
2022-12-11T09:30:21.181Z,29.41
2022-12-11T09:32:47.950Z,29.07
2022-12-11T09:35:14.691Z,28.42
2022-12-11T09:37:41.143Z,28.15
2022-12-11T09:40:08.149Z,27.06
2022-12-11T09:42:34.689Z,26.28
2022-12-11T09:45:01.167Z,26.49
2022-12-11T09:47:27.561Z,25.74
2022-12-11T09:49:53.947Z,24.39
2022-12-11T09:52:23.657Z,23.59
2022-12-11T09:54:50.440Z,23.24
2022-12-11T09:57:16.991Z,23.09
2022-12-11T09:59:45.726Z,22.80
2022-12-11T10:02:12.232Z,22.79
2022-12-11T10:04:38.623Z,22.68
2022-12-11T10:07:05.004Z,21.88
2022-12-11T10:09:31.410Z,22.88
2022-12-11T10:11:57.826Z,22.27
2022-12-11T10:14:27.904Z,22.34
2022-12-11T10:16:54.550Z,22.38
2022-12-11T10:19:21.934Z,21.10
2022-12-11T10:21:48.804Z,19.99
2022-12-11T10:24:33.778Z,19.52
2022-12-11T10:27:04.075Z,19.13
2022-12-11T10:29:32.722Z,18.41
2022-12-11T10:31:59.182Z,18.97
2022-12-11T10:34:25.552Z,19.20
2022-12-11T10:36:57.291Z,19.52
2022-12-11T10:39:26.805Z,19.28
2022-12-11T10:41:53.501Z,20.02
2022-12-11T10:44:20.160Z,20.32
2022-12-11T10:46:46.694Z,20.41
2022-12-11T10:49:13.359Z,20.02
2022-12-11T10:51:40.227Z,19.94
2022-12-11T10:54:07.743Z,20.14
2022-12-11T10:56:34.455Z,20.72
2022-12-11T10:59:00.906Z,20.22
2022-12-11T11:01:28.232Z,19.92
2022-12-11T11:03:54.993Z,20.33
2022-12-11T11:06:21.782Z,19.44
2022-12-11T11:08:48.627Z,20.53
2022-12-11T11:11:17.419Z,20.06
2022-12-11T11:13:43.849Z,20.70
2022-12-11T11:16:12.591Z,20.69
2022-12-11T11:18:39.389Z,20.09
2022-12-11T11:21:05.920Z,20.56
2022-12-11T11:23:32.317Z,21.36
2022-12-11T11:25:59.040Z,21.45
2022-12-11T11:28:25.424Z,21.82
2022-12-11T11:30:52.456Z,22.01
2022-12-11T11:33:19.085Z,21.85
2022-12-11T11:35:47.916Z,21.75
2022-12-11T11:38:14.387Z,21.03
2022-12-11T11:40:40.914Z,21.06
2022-12-11T11:43:07.258Z,21.26
2022-12-11T11:45:33.639Z,21.18
2022-12-11T11:48:11.841Z,21.25
2022-12-11T11:50:38.340Z,22.20
2022-12-11T11:53:05.187Z,21.62
2022-12-11T11:55:31.762Z,21.78
2022-12-11T11:57:59.223Z,21.74
2022-12-11T12:00:28.880Z,21.74
2022-12-11T12:02:59.713Z,21.29
2022-12-11T12:05:28.535Z,21.30
2022-12-11T12:07:55.020Z,21.20
2022-12-11T12:10:21.405Z,21.66
2022-12-11T12:12:47.780Z,21.89
2022-12-11T12:15:14.306Z,21.88
2022-12-11T12:17:40.958Z,21.89
2022-12-11T12:20:07.348Z,22.04
2022-12-11T12:22:34.217Z,21.24
2022-12-11T12:25:01.091Z,21.10
2022-12-11T12:27:51.495Z,21.41
2022-12-11T12:30:20.355Z,22.27
2022-12-11T12:32:49.220Z,21.76
2022-12-11T12:35:16.182Z,21.65
2022-12-11T12:37:42.806Z,21.97
2022-12-11T12:40:09.257Z,21.93
2022-12-11T12:42:35.652Z,21.84
2022-12-11T12:45:02.045Z,21.59
2022-12-11T12:47:28.437Z,21.81
2022-12-11T12:49:54.794Z,21.35
2022-12-11T12:52:23.529Z,21.01
2022-12-11T12:54:51.094Z,21.78
2022-12-11T12:57:17.903Z,21.80
2022-12-11T12:59:44.464Z,22.03
2022-12-11T13:02:10.967Z,21.60
2022-12-11T13:07:24.526Z,22.27
2022-12-11T13:09:50.905Z,22.30
2022-12-11T13:12:17.328Z,22.39
2022-12-11T13:14:44.033Z,22.13
2022-12-11T13:17:10.505Z,21.84
2022-12-11T13:19:42.324Z,21.61
2022-12-11T13:22:09.679Z,21.50
2022-12-11T13:24:36.320Z,21.58
2022-12-11T13:27:02.973Z,21.92
2022-12-11T13:29:29.432Z,21.98
2022-12-11T13:31:56.103Z,22.02
2022-12-11T13:34:22.526Z,21.69
2022-12-11T13:36:49.751Z,22.61
2022-12-11T13:39:17.800Z,22.34
2022-12-11T13:41:44.528Z,22.35
2022-12-11T13:44:11.278Z,23.09
2022-12-11T13:46:38.015Z,23.46
2022-12-11T13:49:04.385Z,24.18
2022-12-11T13:51:30.838Z,23.96
2022-12-11T13:53:57.560Z,25.05
2022-12-11T13:56:26.536Z,23.65
2022-12-11T13:58:53.246Z,24.86
2022-12-11T14:01:19.738Z,22.57
2022-12-11T14:03:47.268Z,38.12
2022-12-11T14:06:18.653Z,24.67
2022-12-11T14:08:46.182Z,22.47
2022-12-11T14:11:12.550Z,22.02
2022-12-11T14:13:39.554Z,23.03
2022-12-11T14:16:06.244Z,23.80
2022-12-11T14:18:32.970Z,22.92
2022-12-11T14:21:02.419Z,23.58
2022-12-11T14:23:29.600Z,23.37
2022-12-11T14:25:56.207Z,23.34
2022-12-11T14:28:22.597Z,24.25
2022-12-11T14:30:49.322Z,24.38
2022-12-11T14:33:16.026Z,24.50
2022-12-11T14:35:45.149Z,24.51
2022-12-11T14:38:14.061Z,23.62
2022-12-11T14:40:40.544Z,23.39
2022-12-11T14:43:07.016Z,23.74
2022-12-11T14:45:34.606Z,22.83
2022-12-11T14:48:01.515Z,23.39
2022-12-11T14:50:28.953Z,24.63
2022-12-11T14:52:55.361Z,23.88
2022-12-11T14:55:21.707Z,25.62
2022-12-11T14:57:50.358Z,23.54
2022-12-11T15:00:17.102Z,23.82
2022-12-11T15:02:43.977Z,23.43
2022-12-11T15:05:10.456Z,23.62
2022-12-11T15:07:36.849Z,24.17
2022-12-11T15:10:03.400Z,23.87
2022-12-11T15:12:29.790Z,23.90
2022-12-11T15:14:56.631Z,23.85
2022-12-11T15:17:23.163Z,24.23
2022-12-11T15:19:50.957Z,23.97
2022-12-11T15:22:17.352Z,23.90
2022-12-11T15:24:43.771Z,23.71
2022-12-11T15:27:11.676Z,23.71
2022-12-11T15:29:38.007Z,23.45
2022-12-11T15:32:04.505Z,23.20
2022-12-11T15:34:31.089Z,24.00
2022-12-11T15:36:57.444Z,22.90
2022-12-11T15:39:24.014Z,23.09
2022-12-11T15:41:50.584Z,24.20
2022-12-11T15:44:17.203Z,24.10
2022-12-11T15:46:44.033Z,23.60
2022-12-11T15:49:10.424Z,23.51
2022-12-11T15:51:42.652Z,23.60
2022-12-11T15:54:09.756Z,24.72
2022-12-11T15:56:36.606Z,25.07
2022-12-11T15:59:03.171Z,26.56
2022-12-11T16:01:29.746Z,26.65
2022-12-11T16:04:01.702Z,27.78
2022-12-11T16:06:31.441Z,25.94
2022-12-11T16:08:57.892Z,25.87
2022-12-11T16:11:24.387Z,27.86
2022-12-11T16:13:50.790Z,35.38
2022-12-11T16:16:17.355Z,29.15
2022-12-11T16:18:43.847Z,25.17
2022-12-11T16:21:10.725Z,25.36
2022-12-11T16:23:37.116Z,25.26
2022-12-11T16:26:03.681Z,25.42
2022-12-11T16:28:32.519Z,26.01
2022-12-11T16:30:59.111Z,28.36
2022-12-11T16:33:25.497Z,28.85
2022-12-11T16:35:52.408Z,26.55
2022-12-11T16:38:18.818Z,27.65
2022-12-11T16:40:45.714Z,29.10
2022-12-11T16:43:14.573Z,30.60
2022-12-11T16:45:40.955Z,40.22
2022-12-11T16:48:07.352Z,39.09
2022-12-11T16:50:34.381Z,34.05
2022-12-11T16:53:01.099Z,35.21
2022-12-11T16:55:30.277Z,34.97
2022-12-11T16:57:57.156Z,34.07
2022-12-11T17:00:23.883Z,31.01
2022-12-11T17:02:50.532Z,28.56
2022-12-11T17:05:16.972Z,31.82
2022-12-11T17:07:43.358Z,32.70
2022-12-11T17:10:10.070Z,35.65
2022-12-11T17:12:36.462Z,39.83
2022-12-11T17:15:03.370Z,37.66
2022-12-11T17:17:29.806Z,35.15
2022-12-11T17:19:56.383Z,35.46
2022-12-11T17:22:22.890Z,35.51
2022-12-11T17:24:51.569Z,35.53
2022-12-11T17:27:18.198Z,34.87
2022-12-11T17:29:44.610Z,34.21
2022-12-11T17:32:11.023Z,36.20
2022-12-11T17:34:38.683Z,35.92
2022-12-11T17:37:07.749Z,35.03
2022-12-11T17:39:34.440Z,34.30
2022-12-11T17:42:01.932Z,31.76
2022-12-11T17:44:28.547Z,34.03
2022-12-11T17:46:55.961Z,38.00
2022-12-11T17:49:22.511Z,34.63
2022-12-11T17:51:49.082Z,33.37
2022-12-11T17:54:15.530Z,33.61
2022-12-11T17:56:41.916Z,32.57
2022-12-11T17:59:08.664Z,31.54
2022-12-11T18:01:37.953Z,32.48
2022-12-11T18:04:05.310Z,34.92
2022-12-11T18:06:31.705Z,33.47
2022-12-11T18:08:58.292Z,35.17
2022-12-11T18:11:25.221Z,36.06
2022-12-11T18:13:52.634Z,34.93
2022-12-11T18:16:19.189Z,33.17
2022-12-11T18:18:45.766Z,33.61
2022-12-11T18:21:12.148Z,34.10
2022-12-11T18:23:38.908Z,34.20
2022-12-11T18:26:05.480Z,32.70
2022-12-11T18:28:32.195Z,32.74
2022-12-11T18:30:59.279Z,32.12
2022-12-11T18:33:25.692Z,30.21
2022-12-11T18:35:52.087Z,30.43
2022-12-11T18:38:18.443Z,31.85
2022-12-11T18:40:44.776Z,31.84
2022-12-11T18:43:11.415Z,32.88
2022-12-11T18:45:37.997Z,31.55
2022-12-11T18:48:04.374Z,31.11
2022-12-11T18:50:31.229Z,30.68
2022-12-11T18:52:57.789Z,31.48
2022-12-11T18:55:24.177Z,30.74
2022-12-11T18:57:50.642Z,30.70
2022-12-11T19:00:17.365Z,29.78
2022-12-11T19:02:43.723Z,31.31
2022-12-11T19:05:10.370Z,31.89
2022-12-11T19:07:37.123Z,31.55
2022-12-11T19:10:03.519Z,31.97
2022-12-11T19:12:30.197Z,32.31
2022-12-11T19:14:56.575Z,32.66
2022-12-11T19:17:23.570Z,29.81
2022-12-11T19:19:50.157Z,29.04
2022-12-11T19:22:17.199Z,26.52
2022-12-11T19:24:44.696Z,27.70
2022-12-11T19:27:13.702Z,27.54
2022-12-11T19:29:42.361Z,27.16
2022-12-11T19:32:08.824Z,28.83
2022-12-11T19:34:35.215Z,29.80
2022-12-11T19:37:01.711Z,28.69
2022-12-11T19:39:28.163Z,28.67
2022-12-11T19:41:55.204Z,28.13
2022-12-11T19:44:21.670Z,28.12
2022-12-11T19:46:48.329Z,28.91
2022-12-11T19:49:14.788Z,28.85
2022-12-11T19:51:41.137Z,28.56
2022-12-11T19:54:07.505Z,27.76
2022-12-11T19:56:36.319Z,28.29
2022-12-11T19:59:03.063Z,27.65
2022-12-11T20:01:29.437Z,27.37
2022-12-11T20:03:56.173Z,27.12
2022-12-11T20:06:23.963Z,27.65
2022-12-11T20:08:51.427Z,27.61
2022-12-11T20:11:18.933Z,27.48
2022-12-11T20:13:45.594Z,28.97
2022-12-11T20:16:13.127Z,31.03
2022-12-11T20:18:39.595Z,29.48
2022-12-11T20:21:06.010Z,31.09
2022-12-11T20:23:32.488Z,31.56
2022-12-11T20:25:59.147Z,28.51
2022-12-11T20:28:25.615Z,28.77
2022-12-11T20:30:52.197Z,29.68
2022-12-11T20:33:18.681Z,28.76
2022-12-11T20:35:45.058Z,29.12
2022-12-11T20:38:11.410Z,34.25
2022-12-11T20:40:37.862Z,38.72
2022-12-11T20:43:04.307Z,38.06
2022-12-11T20:45:33.135Z,37.83
2022-12-11T20:47:59.585Z,33.33
2022-12-11T20:50:31.262Z,28.95
2022-12-11T20:52:57.607Z,27.04
2022-12-11T20:55:25.409Z,27.18
2022-12-11T20:57:52.005Z,27.48
2022-12-11T21:00:18.564Z,27.51
2022-12-11T21:02:45.028Z,27.93
2022-12-11T21:05:11.772Z,27.37
2022-12-11T21:07:38.363Z,27.78
2022-12-11T21:10:05.994Z,25.41
2022-12-11T21:12:32.569Z,24.92
2022-12-11T21:14:59.001Z,24.02
2022-12-11T21:17:25.589Z,23.71
2022-12-11T21:19:51.984Z,23.36
2022-12-11T21:22:18.861Z,23.45
2022-12-11T21:24:45.314Z,23.18
2022-12-11T21:27:11.688Z,23.38
2022-12-11T21:29:38.451Z,23.42
2022-12-11T21:32:04.875Z,24.61
2022-12-11T21:34:31.361Z,25.42
2022-12-11T21:36:57.751Z,25.82
2022-12-11T21:39:24.176Z,24.95
2022-12-11T21:41:50.516Z,25.75
2022-12-11T21:47:03.420Z,23.48
2022-12-11T21:49:30.364Z,23.35
2022-12-11T21:51:57.070Z,23.58
2022-12-11T21:54:24.735Z,24.04
2022-12-11T21:56:51.107Z,23.92
2022-12-11T21:59:17.454Z,23.30
2022-12-11T22:01:43.805Z,22.51
2022-12-11T22:04:10.322Z,22.25
2022-12-11T22:06:36.721Z,21.75
2022-12-11T22:09:03.122Z,21.53
2022-12-11T22:11:29.506Z,22.48
2022-12-11T22:13:56.337Z,22.02
2022-12-11T22:16:22.765Z,21.71
2022-12-11T22:18:49.174Z,21.52
2022-12-11T22:21:16.227Z,21.04
2022-12-11T22:23:42.918Z,22.08
2022-12-11T22:26:09.277Z,21.73
2022-12-11T22:28:36.634Z,20.77
2022-12-11T22:31:03.283Z,19.78
2022-12-11T22:33:31.707Z,19.52
2022-12-11T22:35:58.700Z,19.41
2022-12-11T22:38:25.312Z,19.66
2022-12-11T22:40:51.718Z,19.30
2022-12-11T22:43:18.070Z,18.99
2022-12-11T22:45:44.530Z,18.76
2022-12-11T22:48:11.120Z,18.90
2022-12-11T22:50:37.467Z,18.30
2022-12-11T22:53:04.068Z,17.86
2022-12-11T22:55:30.696Z,17.34
2022-12-11T22:57:57.142Z,17.02
2022-12-11T23:00:25.120Z,16.91
2022-12-11T23:02:51.580Z,16.87
2022-12-11T23:05:18.214Z,16.93
2022-12-11T23:07:44.710Z,15.99
2022-12-11T23:10:11.104Z,15.98
2022-12-11T23:12:37.506Z,15.14
2022-12-11T23:15:03.949Z,14.13
2022-12-11T23:17:30.290Z,13.93
2022-12-11T23:19:56.673Z,13.96
2022-12-11T23:22:23.068Z,13.59
2022-12-11T23:24:50.545Z,13.65
2022-12-11T23:27:17.011Z,13.96
2022-12-11T23:29:43.391Z,13.40
2022-12-11T23:32:09.783Z,13.43
2022-12-11T23:34:36.135Z,13.19
2022-12-11T23:37:04.055Z,12.69
2022-12-11T23:39:30.679Z,11.78
2022-12-11T23:41:57.009Z,13.31
2022-12-11T23:44:23.356Z,13.21
2022-12-11T23:46:49.730Z,12.86
2022-12-11T23:49:16.108Z,12.34
2022-12-11T23:51:43.242Z,12.42
2022-12-11T23:54:09.573Z,12.48
2022-12-11T23:56:36.117Z,12.41
2022-12-11T23:59:02.477Z,12.11
